Time;durP1;ratioP1;P1;durP2;ratioP2;P2;SDS_P1;SDS_P2;PMS_P1;PMS_P2;Temp;Humidity;BMP_temperature;BMP_pressure;BME280_temperature;BME280_humidity;BME280_pressure;Samples;Min_cycle;Max_cycle;Signal;HPM_P1;HPM_P2
2021/12/17 00:00:27;;;;;;;;;;;9.70;99.90;;;;;;5116570;27;19918;-70
2021/12/17 00:05:45;;;;;;;;;;;9.70;99.90;;;;;;5135494;27;19907;-70
2021/12/17 00:08:10;;;;;;;;;;;9.70;99.90;;;;;;5116335;27;20263;-70
2021/12/17 00:10:36;;;;;;;;;;;9.70;99.90;;;;;;5135342;27;19908;-70
2021/12/17 00:13:02;;;;;;;;;;;;;;;;;;5135054;27;19930;-72
2021/12/17 00:15:27;;;;;;;;;;;9.60;99.90;;;;;;5128880;27;20437;-70
2021/12/17 00:17:59;;;;;;;;;;;9.70;99.90;;;;;;5114735;28;19923;-70
2021/12/17 00:52:57;;;;;;;;;;;9.50;99.90;;;;;;5134517;27;19907;-70
2021/12/17 00:55:23;;;;;;;;;;;9.50;99.90;;;;;;5133657;27;19919;-69
2021/12/17 00:57:48;;;;;;;;;;;9.60;99.90;;;;;;5134254;27;19930;-69
2021/12/17 01:00:17;;;;;;;;;;;9.60;99.90;;;;;;5133413;27;20260;-70
2021/12/17 01:02:43;;;;;;;;;;;9.60;99.90;;;;;;5134494;27;19907;-70
2021/12/17 01:05:13;;;;;;;;;;;9.70;99.90;;;;;;5133919;27;19915;-70
2021/12/17 01:07:41;;;;;;;;;;;9.70;99.90;;;;;;5134858;27;20010;-70
2021/12/17 01:10:07;;;;;;;;;;;;;;;;;;5133318;27;19908;-72
2021/12/17 01:12:33;;;;;;;;;;;9.60;99.90;;;;;;5115720;27;19907;-69
2021/12/17 01:14:58;;;;;;;;;;;9.50;99.90;;;;;;5134191;27;19960;-69
2021/12/17 01:17:26;;;;;;;;;;;9.50;99.90;;;;;;5115341;27;20686;-69
2021/12/17 01:25:13;;;;;;;;;;;9.40;99.90;;;;;;5116906;27;19911;-70
2021/12/17 01:35:51;;;;;;;;;;;9.40;99.90;;;;;;5134073;27;19913;-69
2021/12/17 01:43:14;;;;;;;;;;;9.40;99.90;;;;;;5132971;27;19960;-69
2021/12/17 01:45:41;;;;;;;;;;;9.50;99.90;;;;;;5133100;27;20336;-69
2021/12/17 01:48:09;;;;;;;;;;;;;;;;;;5133452;27;20006;-72
2021/12/17 01:56:19;;;;;;;;;;;;;;;;;;5133050;28;19914;-69
2021/12/17 02:01:30;;;;;;;;;;;9.40;99.90;;;;;;5126672;28;20008;-69
2021/12/17 02:03:56;;;;;;;;;;;;;;;;;;5112652;28;20260;-71
2021/12/17 02:06:23;;;;;;;;;;;9.40;99.90;;;;;;5114203;28;19908;-70
2021/12/17 02:08:50;;;;;;;;;;;9.40;99.90;;;;;;5120360;28;20383;-69
2021/12/17 02:30:27;;;;;;;;;;;9.30;99.90;;;;;;5112708;28;19923;-69
2021/12/17 02:32:52;;;;;;;;;;;9.30;99.90;;;;;;5112917;28;20340;-69
2021/12/17 02:35:29;;;;;;;;;;;9.30;99.90;;;;;;5111931;28;19915;-69
2021/12/17 02:37:55;;;;;;;;;;;9.30;99.90;;;;;;5112737;28;20040;-69
2021/12/17 02:45:34;;;;;;;;;;;9.30;99.90;;;;;;5115809;28;19908;-69
2021/12/17 02:48:00;;;;;;;;;;;9.30;99.90;;;;;;5134147;27;19911;-69
2021/12/17 02:50:26;;;;;;;;;;;9.30;99.90;;;;;;5135826;27;19998;-69
2021/12/17 02:52:53;;;;;;;;;;;9.20;99.90;;;;;;5136906;27;19907;-69
2021/12/17 02:55:19;;;;;;;;;;;9.30;99.90;;;;;;5135995;27;19986;-69
2021/12/17 02:57:45;;;;;;;;;;;9.30;99.90;;;;;;5136198;27;20006;-69
2021/12/17 03:00:10;;;;;;;;;;;;;;;;;;5131146;27;20008;-72
2021/12/17 03:02:38;;;;;;;;;;;9.20;99.90;;;;;;5115595;28;19915;-69
2021/12/17 03:05:04;;;;;;;;;;;9.20;99.90;;;;;;5113175;27;20248;-70
2021/12/17 03:07:30;;;;;;;;;;;9.30;99.90;;;;;;5130084;27;19920;-69
2021/12/17 03:10:07;;;;;;;;;;;9.20;99.90;;;;;;5116030;28;19911;-69
2021/12/17 03:13:16;;;;;;;;;;;9.20;99.90;;;;;;5115465;27;20076;-69
2021/12/17 03:15:49;;;;;;;;;;;9.20;99.90;;;;;;5104740;27;20002;-69
2021/12/17 03:23:50;;;;;;;;;;;9.20;99.90;;;;;;5083623;28;19908;-69
2021/12/17 03:26:17;;;;;;;;;;;9.20;99.90;;;;;;5128270;27;19979;-69
2021/12/17 03:28:43;;;;;;;;;;;;;;;;;;5118032;27;20424;-69
2021/12/17 03:31:09;;;;;;;;;;;9.20;99.90;;;;;;5136303;27;19911;-69
2021/12/17 03:33:35;;;;;;;;;;;9.20;99.90;;;;;;5135399;27;19915;-69
2021/12/17 03:36:01;;;;;;;;;;;9.10;99.90;;;;;;5113772;27;19912;-69
2021/12/17 03:38:27;;;;;;;;;;;9.20;99.90;;;;;;5114635;28;19916;-69
2021/12/17 03:41:04;;;;;;;;;;;9.20;99.90;;;;;;5126781;27;19912;-69
2021/12/17 03:43:31;;;;;;;;;;;9.20;99.90;;;;;;5129520;27;20383;-69
2021/12/17 03:45:57;;;;;;;;;;;9.20;99.90;;;;;;5115483;28;19914;-69
2021/12/17 03:48:23;;;;;;;;;;;9.20;99.90;;;;;;5132894;27;19911;-70
2021/12/17 03:50:48;;;;;;;;;;;9.20;99.90;;;;;;5126782;27;19911;-69
2021/12/17 03:53:14;;;;;;;;;;;;;;;;;;5115170;28;20396;-72
2021/12/17 03:55:40;;;;;;;;;;;9.10;99.90;;;;;;5114269;27;19915;-69
2021/12/17 03:58:05;;;;;;;;;;;9.10;99.90;;;;;;5125306;27;20265;-69
2021/12/17 04:00:31;;;;;;;;;;;9.10;99.90;;;;;;5114369;28;19934;-69
2021/12/17 04:02:57;;;;;;;;;;;9.10;99.90;;;;;;5132097;27;20390;-69
2021/12/17 04:05:23;;;;;;;;;;;9.20;99.90;;;;;;5130478;27;19912;-69
2021/12/17 04:07:49;;;;;;;;;;;9.20;99.90;;;;;;5104869;27;20091;-69
2021/12/17 04:10:17;;;;;;;;;;;;;;;;;;5117845;27;20380;-72
2021/12/17 04:15:36;;;;;;;;;;;9.10;99.90;;;;;;5100525;28;19908;-69
2021/12/17 04:18:07;;;;;;;;;;;9.10;99.90;;;;;;5115126;28;19916;-69
2021/12/17 04:20:33;;;;;;;;;;;9.00;99.90;;;;;;5130367;27;19912;-69
2021/12/17 04:22:59;;;;;;;;;;;8.90;99.90;;;;;;5134572;27;20283;-69
2021/12/17 04:25:25;;;;;;;;;;;8.90;99.90;;;;;;5133593;27;19907;-70
2021/12/17 04:27:50;;;;;;;;;;;8.90;99.90;;;;;;5135333;27;19915;-69
2021/12/17 04:30:16;;;;;;;;;;;;;;;;;;5134710;27;19915;-72
2021/12/17 04:32:42;;;;;;;;;;;9.00;99.90;;;;;;5116279;27;20244;-69
2021/12/17 04:35:08;;;;;;;;;;;8.90;99.90;;;;;;5135033;27;19907;-69
2021/12/17 04:37:34;;;;;;;;;;;8.90;99.90;;;;;;5118185;27;19928;-69
2021/12/17 04:39:59;;;;;;;;;;;8.90;99.90;;;;;;5124882;27;19971;-69
2021/12/17 04:45:14;;;;;;;;;;;9.00;99.90;;;;;;5095794;27;20294;-69
2021/12/17 04:58:36;;;;;;;;;;;8.80;99.90;;;;;;5133406;27;19988;-69
2021/12/17 05:01:08;;;;;;;;;;;8.90;99.90;;;;;;5102319;28;19907;-70
2021/12/17 05:03:34;;;;;;;;;;;8.80;99.90;;;;;;5114759;27;19943;-70
2021/12/17 05:06:00;;;;;;;;;;;8.80;99.90;;;;;;5133567;27;20350;-70
2021/12/17 05:08:26;;;;;;;;;;;8.80;99.90;;;;;;5120932;27;19912;-69
2021/12/17 05:19:35;;;;;;;;;;;8.80;99.90;;;;;;5131894;27;20374;-69
2021/12/17 05:22:05;;;;;;;;;;;8.70;99.90;;;;;;5113623;28;19964;-69
2021/12/17 05:24:30;;;;;;;;;;;8.70;99.90;;;;;;5112983;27;19907;-70
2021/12/17 05:26:57;;;;;;;;;;;;;;;;;;5120888;27;19980;-69
2021/12/17 05:29:23;;;;;;;;;;;;;;;;;;5095662;27;19961;-70
2021/12/17 05:31:48;;;;;;;;;;;8.80;99.90;;;;;;5115600;27;19907;-69
2021/12/17 05:34:14;;;;;;;;;;;8.80;99.90;;;;;;5121261;27;20335;-69
2021/12/17 05:36:39;;;;;;;;;;;8.80;99.90;;;;;;5112512;28;19923;-69
2021/12/17 05:39:05;;;;;;;;;;;8.80;99.90;;;;;;5113688;28;19995;-69
2021/12/17 05:41:30;;;;;;;;;;;8.80;99.90;;;;;;5112518;28;19908;-70
2021/12/17 05:43:57;;;;;;;;;;;8.80;99.90;;;;;;5120154;27;19915;-69
2021/12/17 05:46:37;;;;;;;;;;;;;;;;;;5133098;27;19908;-72
2021/12/17 05:49:02;;;;;;;;;;;8.80;99.90;;;;;;5133803;27;20356;-69
2021/12/17 05:51:28;;;;;;;;;;;8.80;99.90;;;;;;5132869;27;19914;-70
2021/12/17 05:53:53;;;;;;;;;;;8.80;99.90;;;;;;5133162;27;19949;-69
2021/12/17 05:56:20;;;;;;;;;;;;;;;;;;5117617;28;19911;-69
2021/12/17 05:58:45;;;;;;;;;;;8.90;99.90;;;;;;5122287;28;19921;-70
2021/12/17 06:01:11;;;;;;;;;;;8.90;99.90;;;;;;5121714;28;20002;-69
2021/12/17 06:03:38;;;;;;;;;;;8.90;99.90;;;;;;5121446;28;19907;-69
2021/12/17 06:06:03;;;;;;;;;;;9.00;99.90;;;;;;5106043;28;19918;-69
2021/12/17 06:08:29;;;;;;;;;;;9.10;99.90;;;;;;5121493;28;19916;-69
2021/12/17 06:10:54;;;;;;;;;;;9.10;99.90;;;;;;5122974;28;20036;-69
2021/12/17 06:13:20;;;;;;;;;;;;;;;;;;5105657;28;20274;-72
2021/12/17 06:15:46;;;;;;;;;;;9.00;99.90;;;;;;5121085;28;19918;-70
2021/12/17 06:18:11;;;;;;;;;;;9.00;99.90;;;;;;5123798;27;19926;-69
2021/12/17 06:20:37;;;;;;;;;;;9.00;99.90;;;;;;5135120;27;20313;-69
2021/12/17 06:23:02;;;;;;;;;;;9.00;99.90;;;;;;5136881;27;19911;-70
2021/12/17 06:25:28;;;;;;;;;;;9.00;99.90;;;;;;5136638;27;20363;-69
2021/12/17 06:27:54;;;;;;;;;;;9.10;99.90;;;;;;5137931;27;20255;-69
2021/12/17 06:30:20;;;;;;;;;;;9.10;99.90;;;;;;5127775;27;19926;-69
2021/12/17 06:32:46;;;;;;;;;;;9.10;99.90;;;;;;5122236;27;19915;-69
2021/12/17 06:35:12;;;;;;;;;;;;;;;;;;5137258;27;19975;-69
2021/12/17 06:37:40;;;;;;;;;;;9.20;99.90;;;;;;5117414;27;19919;-69
2021/12/17 06:40:06;;;;;;;;;;;9.10;99.90;;;;;;5130558;27;19919;-69
2021/12/17 06:42:32;;;;;;;;;;;9.20;99.90;;;;;;5130426;27;20422;-69
2021/12/17 06:45:02;;;;;;;;;;;9.20;99.90;;;;;;5116338;28;20006;-70
2021/12/17 06:47:33;;;;;;;;;;;9.20;99.90;;;;;;5129213;27;19912;-71
2021/12/17 06:54:41;;;;;;;;;;;9.20;99.90;;;;;;5115343;27;20012;-70
2021/12/17 07:05:50;;;;;;;;;;;9.20;99.90;;;;;;5115349;28;19968;-67
2021/12/17 07:06:57;;;;;;;;;;;9.40;99.90;;;;;;5115946;28;19968;-66
2021/12/17 07:17:43;;;;;;;;;;;;;;;;;;5112706;27;19930;-69
2021/12/17 07:23:17;;;;;;;;;;;;;;;;;;5038644;28;19948;-71
2021/12/17 07:34:04;;;;;;;;;;;;;;;;;;5092685;27;19915;-71
2021/12/17 07:36:39;;;;;;;;;;;;;;;;;;5111371;28;19926;-73
2021/12/17 07:39:05;;;;;;;;;;;;;;;;;;5129337;27;19911;-72
2021/12/17 07:41:31;;;;;;;;;;;;;;;;;;5100806;28;19911;-73
2021/12/17 07:43:59;;;;;;;;;;;;;;;;;;5112440;27;19951;-72
2021/12/17 07:46:25;;;;;;;;;;;;;;;;;;5132237;27;20014;-72
2021/12/17 07:48:51;;;;;;;;;;;;;;;;;;5118873;27;20007;-71
2021/12/17 07:51:17;;;;;;;;;;;;;;;;;;5115533;27;20010;-71
2021/12/17 07:53:43;;;;;;;;;;;;;;;;;;5118589;27;19911;-71
2021/12/17 07:56:10;;;;;;;;;;;9.40;99.90;;;;;;5102802;27;19912;-71
2021/12/17 07:58:36;;;;;;;;;;;;;;;;;;5106297;28;20397;-72
2021/12/17 08:01:02;;;;;;;;;;;;;;;;;;5111655;28;19907;-71
2021/12/17 08:03:27;;;;;;;;;;;;;;;;;;5125573;27;19915;-75
2021/12/17 08:05:53;;;;;;;;;;;9.30;99.90;;;;;;5093011;28;19922;-70
2021/12/17 08:08:19;;;;;;;;;;;;;;;;;;5116114;27;19908;-71
2021/12/17 08:10:47;;;;;;;;;;;9.20;99.90;;;;;;5134912;27;20237;-71
2021/12/17 08:13:19;;;;;;;;;;;;;;;;;;5120818;27;20360;-68
2021/12/17 08:15:57;;;;;;;;;;;11.50;99.90;;;;;;5121571;27;19955;-68
2021/12/17 08:18:43;;;;;;;;;;;12.00;99.90;;;;;;5134681;27;20427;-74
2021/12/17 08:31:29;;;;;;;;;;;;;;;;;;5134791;27;19914;-73
2021/12/17 08:33:55;;;;;;;;;;;9.50;99.90;;;;;;5129859;27;19911;-70
2021/12/17 08:36:21;;;;;;;;;;;;;;;;;;5122620;27;19911;-70
2021/12/17 08:38:49;;;;;;;;;;;9.50;99.90;;;;;;5122866;27;19923;-70
2021/12/17 08:41:15;;;;;;;;;;;9.40;99.90;;;;;;5122028;27;19919;-70
2021/12/17 08:43:41;;;;;;;;;;;9.50;99.90;;;;;;5121234;27;19908;-71
2021/12/17 08:46:08;;;;;;;;;;;9.50;99.90;;;;;;5123721;27;19914;-70
2021/12/17 08:48:33;;;;;;;;;;;;;;;;;;5103369;27;19920;-71
2021/12/17 08:50:59;;;;;;;;;;;;;;;;;;5121045;27;19912;-70
2021/12/17 08:53:25;;;;;;;;;;;9.30;99.90;;;;;;5105934;27;19914;-70
2021/12/17 08:55:51;;;;;;;;;;;9.40;99.90;;;;;;5122667;27;20091;-70
2021/12/17 08:58:16;;;;;;;;;;;9.40;99.90;;;;;;5121097;27;19968;-70
2021/12/17 09:00:42;;;;;;;;;;;;;;;;;;5112260;27;20360;-71
2021/12/17 09:03:09;;;;;;;;;;;;;;;;;;5102684;27;19960;-71
2021/12/17 09:05:37;;;;;;;;;;;;;;;;;;5102007;28;19912;-70
2021/12/17 09:08:06;;;;;;;;;;;9.50;99.90;;;;;;5101811;27;19919;-70
2021/12/17 09:10:32;;;;;;;;;;;9.50;99.90;;;;;;5117860;27;19953;-70
2021/12/17 09:12:58;;;;;;;;;;;;;;;;;;5110636;27;19972;-70
2021/12/17 09:15:24;;;;;;;;;;;;;;;;;;5095173;27;20450;-70
2021/12/17 09:17:50;;;;;;;;;;;;;;;;;;5130036;27;19919;-70
2021/12/17 09:20:16;;;;;;;;;;;;;;;;;;5113225;27;20364;-70
2021/12/17 09:22:42;;;;;;;;;;;;;;;;;;5116597;27;19916;-70
2021/12/17 09:25:07;;;;;;;;;;;9.50;99.90;;;;;;5129406;27;19938;-70
2021/12/17 09:27:33;;;;;;;;;;;;;;;;;;5126272;27;19915;-73
2021/12/17 09:29:59;;;;;;;;;;;;;;;;;;5122542;27;20353;-70
2021/12/17 09:32:25;;;;;;;;;;;;;;;;;;5129782;27;19963;-70
2021/12/17 09:34:51;;;;;;;;;;;;;;;;;;5128519;27;20372;-70
2021/12/17 09:37:17;;;;;;;;;;;9.50;99.90;;;;;;5114975;27;19924;-70
2021/12/17 09:39:43;;;;;;;;;;;;;;;;;;5118989;27;19911;-70
2021/12/17 09:42:09;;;;;;;;;;;9.50;99.90;;;;;;5101213;27;20038;-70
2021/12/17 09:44:35;;;;;;;;;;;;;;;;;;5116044;27;19912;-71
2021/12/17 09:47:01;;;;;;;;;;;;;;;;;;5118182;27;19923;-70
2021/12/17 09:49:27;;;;;;;;;;;;;;;;;;5111394;27;20024;-70
2021/12/17 09:51:53;;;;;;;;;;;;;;;;;;5122970;27;20002;-71
2021/12/17 09:54:19;;;;;;;;;;;9.40;99.90;;;;;;5125110;28;19969;-70
2021/12/17 09:56:45;;;;;;;;;;;9.50;99.90;;;;;;5117603;28;19919;-70
2021/12/17 09:59:12;;;;;;;;;;;9.60;99.90;;;;;;5106911;28;20018;-70
2021/12/17 10:01:38;;;;;;;;;;;;;;;;;;5099605;28;19911;-71
2021/12/17 10:04:04;;;;;;;;;;;;;;;;;;5119159;28;19919;-70
2021/12/17 10:06:30;;;;;;;;;;;;;;;;;;5118633;28;20667;-70
2021/12/17 10:08:56;;;;;;;;;;;;;;;;;;5098346;28;19920;-70
2021/12/17 10:11:22;;;;;;;;;;;;;;;;;;5100157;28;20305;-70
2021/12/17 10:13:48;;;;;;;;;;;9.40;99.90;;;;;;5100083;28;19960;-71
2021/12/17 10:16:13;;;;;;;;;;;;;;;;;;5119310;28;20520;-70
2021/12/17 10:18:39;;;;;;;;;;;;;;;;;;5116427;28;19916;-70
2021/12/17 10:21:06;;;;;;;;;;;9.30;99.90;;;;;;5124003;28;19998;-70
2021/12/17 10:23:32;;;;;;;;;;;;;;;;;;5121504;28;19942;-72
2021/12/17 10:25:59;;;;;;;;;;;9.30;99.90;;;;;;5132415;28;20324;-70
2021/12/17 10:28:25;;;;;;;;;;;9.70;99.90;;;;;;5112844;28;19920;-73
2021/12/17 10:30:51;;;;;;;;;;;10.30;99.90;;;;;;5112202;28;19966;-69
2021/12/17 10:33:23;;;;;;;;;;;9.60;99.90;;;;;;5095545;28;19993;-71
2021/12/17 10:35:51;;;;;;;;;;;9.40;99.90;;;;;;5123792;28;19911;-69
2021/12/17 10:38:18;;;;;;;;;;;9.30;99.90;;;;;;5125485;28;19968;-71
2021/12/17 10:40:47;;;;;;;;;;;9.30;99.90;;;;;;5112525;28;19916;-66
2021/12/17 10:43:22;;;;;;;;;;;9.20;99.90;;;;;;5123182;28;19908;-69
2021/12/17 10:51:22;;;;;;;;;;;9.30;99.90;;;;;;5083156;28;19907;-67
2021/12/17 10:53:54;;;;;;;;;;;9.10;99.90;;;;;;5126626;28;20386;-67
2021/12/17 10:56:27;;;;;;;;;;;9.20;99.90;;;;;;5133264;28;19908;-70
2021/12/17 10:59:03;;;;;;;;;;;9.20;99.90;;;;;;5114343;28;19916;-71
2021/12/17 11:01:31;;;;;;;;;;;9.10;99.90;;;;;;5133476;28;19911;-70
2021/12/17 11:04:04;;;;;;;;;;;9.10;99.90;;;;;;5132818;27;19907;-71
2021/12/17 11:06:43;;;;;;;;;;;9.10;99.90;;;;;;5137268;27;19908;-71
2021/12/17 11:09:09;;;;;;;;;;;9.20;99.90;;;;;;5118822;27;20019;-71
2021/12/17 11:11:41;;;;;;;;;;;9.20;99.90;;;;;;5120975;27;19955;-71
2021/12/17 11:14:06;;;;;;;;;;;9.00;99.90;;;;;;5122593;27;19965;-72
2021/12/17 11:16:32;;;;;;;;;;;9.10;99.90;;;;;;5122141;27;20279;-71
2021/12/17 11:18:57;;;;;;;;;;;8.90;99.90;;;;;;5115940;27;19916;-71
2021/12/17 11:21:23;;;;;;;;;;;;;;;;;;5113929;27;19915;-72
2021/12/17 11:23:49;;;;;;;;;;;9.10;99.90;;;;;;5133460;27;19911;-71
2021/12/17 11:26:14;;;;;;;;;;;9.10;99.90;;;;;;5136060;27;19907;-71
2021/12/17 11:28:40;;;;;;;;;;;9.20;99.90;;;;;;5112245;28;19920;-71
2021/12/17 11:31:06;;;;;;;;;;;9.20;99.90;;;;;;5116161;28;19914;-71
2021/12/17 11:33:31;;;;;;;;;;;9.10;99.90;;;;;;5128483;27;19911;-71
2021/12/17 11:35:57;;;;;;;;;;;9.00;99.90;;;;;;5129862;27;19980;-71
2021/12/17 11:38:38;;;;;;;;;;;8.90;99.90;;;;;;5115958;28;19912;-71
2021/12/17 11:41:09;;;;;;;;;;;9.00;99.90;;;;;;5116201;28;19920;-71
2021/12/17 11:43:36;;;;;;;;;;;;;;;;;;5128411;27;19911;-71
2021/12/17 11:46:04;;;;;;;;;;;9.10;99.90;;;;;;5135339;27;19967;-71
2021/12/17 11:48:31;;;;;;;;;;;9.10;99.90;;;;;;5115878;28;19907;-71
2021/12/17 11:51:04;;;;;;;;;;;9.00;99.90;;;;;;5115186;28;19934;-71
2021/12/17 11:53:30;;;;;;;;;;;9.10;99.90;;;;;;5115694;28;19912;-71
2021/12/17 11:55:56;;;;;;;;;;;;;;;;;;5117544;27;19979;-71
2021/12/17 11:58:41;;;;;;;;;;;9.20;99.90;;;;;;5099410;28;20431;-71
2021/12/17 12:01:07;;;;;;;;;;;9.20;99.90;;;;;;5125605;27;20280;-71
2021/12/17 12:03:33;;;;;;;;;;;9.20;99.90;;;;;;5136071;27;20326;-71
2021/12/17 12:05:59;;;;;;;;;;;9.20;99.90;;;;;;5117647;27;20492;-71
2021/12/17 12:08:26;;;;;;;;;;;;;;;;;;5097345;28;19908;-71
2021/12/17 12:11:03;;;;;;;;;;;9.10;99.90;;;;;;5096469;28;19911;-71
2021/12/17 12:13:33;;;;;;;;;;;9.00;99.90;;;;;;5134226;27;20268;-71
2021/12/17 12:16:03;;;;;;;;;;;9.00;99.90;;;;;;5130668;27;19963;-71
2021/12/17 12:18:29;;;;;;;;;;;;;;;;;;5134114;27;19915;-71
2021/12/17 12:20:57;;;;;;;;;;;9.10;99.90;;;;;;5133379;27;19911;-71
2021/12/17 12:23:23;;;;;;;;;;;9.10;99.90;;;;;;5123833;27;19969;-71
2021/12/17 12:26:11;;;;;;;;;;;9.10;99.90;;;;;;5100824;27;20006;-71
2021/12/17 12:28:54;;;;;;;;;;;9.10;99.90;;;;;;5135391;27;19958;-71
2021/12/17 12:31:34;;;;;;;;;;;9.00;99.90;;;;;;5097792;28;19920;-71
2021/12/17 12:34:00;;;;;;;;;;;9.00;99.90;;;;;;5122688;27;19917;-71
2021/12/17 12:36:43;;;;;;;;;;;9.00;99.90;;;;;;5135392;27;19907;-71
2021/12/17 12:39:23;;;;;;;;;;;9.00;99.90;;;;;;5134997;27;19916;-71
2021/12/17 12:41:57;;;;;;;;;;;9.00;99.90;;;;;;5134332;27;20385;-71
2021/12/17 12:44:23;;;;;;;;;;;;;;;;;;5129203;27;19911;-71
2021/12/17 12:46:49;;;;;;;;;;;9.00;99.90;;;;;;5113914;28;20256;-72
2021/12/17 12:49:33;;;;;;;;;;;9.00;99.90;;;;;;5114742;27;19957;-71
2021/12/17 12:52:14;;;;;;;;;;;9.00;99.90;;;;;;5116254;27;19935;-71
2021/12/17 12:54:40;;;;;;;;;;;8.90;99.90;;;;;;5110767;28;19983;-71
2021/12/17 12:57:05;;;;;;;;;;;;;;;;;;5104195;27;20352;-72
2021/12/17 12:59:31;;;;;;;;;;;;;;;;;;5115695;27;19926;-71
2021/12/17 13:01:57;;;;;;;;;;;;;;;;;;5119875;27;20017;-71
2021/12/17 13:04:23;;;;;;;;;;;;;;;;;;5113051;27;19947;-72
2021/12/17 13:06:49;;;;;;;;;;;;;;;;;;5110407;28;20372;-71
2021/12/17 13:09:15;;;;;;;;;;;;;;;;;;5116835;27;19915;-72
2021/12/17 13:11:41;;;;;;;;;;;;;;;;;;5126240;27;19915;-72
2021/12/17 13:14:08;;;;;;;;;;;;;;;;;;5117576;27;20030;-71
2021/12/17 13:16:42;;;;;;;;;;;;;;;;;;5099830;27;20393;-71
2021/12/17 13:22:02;;;;;;;;;;;8.90;99.90;;;;;;5109604;28;19977;-72
2021/12/17 13:24:28;;;;;;;;;;;;;;;;;;5115288;27;19916;-72
2021/12/17 13:26:55;;;;;;;;;;;8.90;99.90;;;;;;5114380;27;19912;-72
2021/12/17 13:29:23;;;;;;;;;;;8.70;99.90;;;;;;5095317;28;20022;-71
2021/12/17 13:31:51;;;;;;;;;;;8.80;99.90;;;;;;5129703;27;19911;-71
2021/12/17 13:34:17;;;;;;;;;;;8.70;99.90;;;;;;5130469;27;20395;-71
2021/12/17 13:36:49;;;;;;;;;;;8.80;99.90;;;;;;5115695;27;19951;-71
2021/12/17 13:39:14;;;;;;;;;;;8.80;99.90;;;;;;5118123;27;19911;-71
2021/12/17 13:41:40;;;;;;;;;;;;;;;;;;5113781;28;19930;-71
2021/12/17 13:44:23;;;;;;;;;;;8.80;99.90;;;;;;5113743;28;19990;-71
2021/12/17 13:46:49;;;;;;;;;;;;;;;;;;5123114;27;20371;-71
2021/12/17 13:49:14;;;;;;;;;;;8.80;99.90;;;;;;5123838;27;19964;-71
2021/12/17 13:51:40;;;;;;;;;;;8.70;99.90;;;;;;5114909;28;19916;-71
2021/12/17 13:54:05;;;;;;;;;;;8.70;99.90;;;;;;5115350;27;19990;-71
2021/12/17 13:56:31;;;;;;;;;;;8.80;99.90;;;;;;5127840;27;19919;-71
2021/12/17 13:59:00;;;;;;;;;;;8.80;99.90;;;;;;5127002;27;19968;-69
2021/12/17 14:01:26;;;;;;;;;;;8.90;99.90;;;;;;5095208;28;19908;-71
2021/12/17 14:03:51;;;;;;;;;;;8.90;99.90;;;;;;5121105;28;19918;-72
2021/12/17 14:06:23;;;;;;;;;;;9.00;99.90;;;;;;5121746;28;19912;-72
2021/12/17 14:08:51;;;;;;;;;;;8.90;99.90;;;;;;5133470;28;19911;-72
2021/12/17 14:11:29;;;;;;;;;;;9.00;99.90;;;;;;5115170;28;20006;-71
2021/12/17 14:13:55;;;;;;;;;;;9.10;99.90;;;;;;5112814;28;19908;-67
2021/12/17 14:16:27;;;;;;;;;;;8.90;99.90;;;;;;5113344;28;19911;-66
2021/12/17 14:18:56;;;;;;;;;;;9.00;99.90;;;;;;5112652;28;19915;-68
2021/12/17 14:21:27;;;;;;;;;;;9.00;99.90;;;;;;5128412;28;19911;-68
2021/12/17 14:23:52;;;;;;;;;;;8.90;99.90;;;;;;5126661;28;19918;-68
2021/12/17 14:26:18;;;;;;;;;;;;;;;;;;5115294;28;19915;-68
2021/12/17 14:28:44;;;;;;;;;;;;;;;;;;5115090;28;19969;-69
2021/12/17 14:31:15;;;;;;;;;;;9.00;99.90;;;;;;5114255;28;20006;-68
2021/12/17 14:33:47;;;;;;;;;;;9.00;99.90;;;;;;5133354;28;19964;-68
2021/12/17 14:36:14;;;;;;;;;;;9.00;99.90;;;;;;5133783;28;19907;-67
2021/12/17 14:38:41;;;;;;;;;;;8.90;99.90;;;;;;5133237;27;19915;-69
2021/12/17 14:41:11;;;;;;;;;;;8.90;99.90;;;;;;5136619;27;19952;-70
2021/12/17 14:43:40;;;;;;;;;;;9.00;99.90;;;;;;5117354;27;19912;-70
2021/12/17 14:46:20;;;;;;;;;;;9.00;99.90;;;;;;5125631;27;19965;-70
2021/12/17 14:48:59;;;;;;;;;;;9.00;99.90;;;;;;5136898;27;19907;-71
2021/12/17 14:57:23;;;;;;;;;;;;;;;;;;5132693;27;19941;-70
2021/12/17 15:02:48;;;;;;;;;;;8.90;99.90;;;;;;5116523;27;19976;-70
2021/12/17 15:05:15;;;;;;;;;;;9.00;99.90;;;;;;5116539;28;20003;-73
2021/12/17 15:07:41;;;;;;;;;;;9.00;99.90;;;;;;5134704;27;19915;-68
2021/12/17 15:10:08;;;;;;;;;;;8.90;99.90;;;;;;5127715;27;19918;-68
2021/12/17 15:15:10;;;;;;;;;;;8.90;99.90;;;;;;5119542;27;19912;-75
2021/12/17 15:17:36;;;;;;;;;;;9.00;99.90;;;;;;5125018;27;20412;-68
2021/12/17 15:20:02;;;;;;;;;;;;;;;;;;5134250;27;20022;-70
2021/12/17 15:22:28;;;;;;;;;;;8.90;99.90;;;;;;5115729;28;20496;-70
2021/12/17 15:24:54;;;;;;;;;;;9.00;99.90;;;;;;5123431;27;19947;-68
2021/12/17 15:27:20;;;;;;;;;;;8.90;99.90;;;;;;5135552;27;19972;-66
2021/12/17 15:29:46;;;;;;;;;;;;;;;;;;5116020;27;19923;-65
2021/12/17 15:32:12;;;;;;;;;;;8.90;99.90;;;;;;5115436;28;19908;-69
2021/12/17 15:34:37;;;;;;;;;;;8.80;99.90;;;;;;5115675;28;19915;-68
2021/12/17 15:37:03;;;;;;;;;;;8.90;99.90;;;;;;5115156;28;19916;-69
2021/12/17 15:39:28;;;;;;;;;;;8.90;99.90;;;;;;5129839;27;20011;-68
2021/12/17 15:41:54;;;;;;;;;;;8.80;99.90;;;;;;5132130;27;20411;-68
2021/12/17 15:44:20;;;;;;;;;;;;;;;;;;5115806;28;19965;-68
2021/12/17 15:46:46;;;;;;;;;;;8.80;99.90;;;;;;5106772;27;20003;-67
2021/12/17 15:49:12;;;;;;;;;;;8.80;99.90;;;;;;5130549;27;20180;-71
2021/12/17 15:51:37;;;;;;;;;;;8.80;99.90;;;;;;5126642;27;20711;-71
2021/12/17 15:54:03;;;;;;;;;;;8.80;99.90;;;;;;5122058;27;19919;-70
2021/12/17 15:56:31;;;;;;;;;;;8.80;99.90;;;;;;5121872;27;20404;-68
2021/12/17 15:58:57;;;;;;;;;;;;;;;;;;5134239;27;20351;-72
2021/12/17 16:01:22;;;;;;;;;;;8.80;99.90;;;;;;5115157;28;19954;-72
2021/12/17 16:03:48;;;;;;;;;;;;;;;;;;5127332;27;19911;-71
2021/12/17 16:06:14;;;;;;;;;;;;;;;;;;5110463;27;20440;-75
2021/12/17 16:08:47;;;;;;;;;;;9.30;99.90;;;;;;5105120;27;19908;-69
2021/12/17 16:21:58;;;;;;;;;;;9.00;99.90;;;;;;5122163;27;19953;-71
2021/12/17 16:24:24;;;;;;;;;;;8.90;99.90;;;;;;5125912;27;19916;-71
2021/12/17 16:26:50;;;;;;;;;;;;;;;;;;5134474;27;19911;-71
2021/12/17 16:29:18;;;;;;;;;;;8.70;99.90;;;;;;5118439;27;19916;-70
2021/12/17 16:31:44;;;;;;;;;;;;;;;;;;5134928;27;19907;-70
2021/12/17 16:34:10;;;;;;;;;;;8.80;99.90;;;;;;5134818;27;19918;-70
2021/12/17 16:36:36;;;;;;;;;;;8.70;99.90;;;;;;5135542;27;20351;-70
2021/12/17 16:39:03;;;;;;;;;;;8.70;99.90;;;;;;5134679;27;19968;-70
2021/12/17 16:41:29;;;;;;;;;;;8.70;99.90;;;;;;5109169;28;20313;-70
2021/12/17 16:44:01;;;;;;;;;;;8.80;99.90;;;;;;5114055;28;19916;-70
2021/12/17 16:49:05;;;;;;;;;;;8.80;99.90;;;;;;5122860;27;19948;-71
2021/12/17 16:51:31;;;;;;;;;;;8.70;99.90;;;;;;5114563;28;20064;-70
2021/12/17 16:53:57;;;;;;;;;;;8.80;99.90;;;;;;5132304;27;20378;-70
2021/12/17 16:56:24;;;;;;;;;;;8.70;99.90;;;;;;5132960;27;19928;-70
2021/12/17 16:58:49;;;;;;;;;;;8.60;99.90;;;;;;5134936;27;19985;-68
2021/12/17 17:01:21;;;;;;;;;;;;;;;;;;5131043;27;19923;-69
2021/12/17 17:03:47;;;;;;;;;;;8.70;99.90;;;;;;5128722;27;20348;-69
2021/12/17 17:06:12;;;;;;;;;;;8.80;99.90;;;;;;5113678;28;19908;-69
2021/12/17 17:08:38;;;;;;;;;;;8.80;99.90;;;;;;5127936;27;20351;-69
2021/12/17 17:11:05;;;;;;;;;;;;;;;;;;5115021;27;19912;-69
2021/12/17 17:13:32;;;;;;;;;;;8.80;99.90;;;;;;5116083;27;19912;-68
2021/12/17 17:16:00;;;;;;;;;;;;;;;;;;5115493;27;20294;-69
2021/12/17 17:18:25;;;;;;;;;;;8.70;99.90;;;;;;5123974;27;20261;-69
2021/12/17 17:20:51;;;;;;;;;;;8.80;99.90;;;;;;5113920;28;19908;-68
2021/12/17 17:23:16;;;;;;;;;;;8.80;99.90;;;;;;5113313;28;19912;-69
2021/12/17 17:25:42;;;;;;;;;;;9.00;99.90;;;;;;5113992;28;20316;-68
2021/12/17 17:28:08;;;;;;;;;;;8.90;99.90;;;;;;5128499;27;20429;-69
2021/12/17 17:30:35;;;;;;;;;;;9.00;99.90;;;;;;5113881;28;19962;-68
2021/12/17 17:33:00;;;;;;;;;;;;;;;;;;5126453;27;19911;-69
2021/12/17 17:35:26;;;;;;;;;;;9.00;99.90;;;;;;5131095;27;19908;-69
2021/12/17 17:37:52;;;;;;;;;;;8.90;99.90;;;;;;5131929;27;19982;-68
2021/12/17 17:40:17;;;;;;;;;;;8.90;99.90;;;;;;5133296;27;19907;-69
2021/12/17 17:42:44;;;;;;;;;;;8.80;99.90;;;;;;5125869;27;19912;-69
2021/12/17 17:45:10;;;;;;;;;;;8.90;99.90;;;;;;5098773;28;19904;-69
2021/12/17 17:47:35;;;;;;;;;;;8.80;99.90;;;;;;5130534;27;19952;-69
2021/12/17 17:50:01;;;;;;;;;;;;;;;;;;5133239;27;20336;-69
2021/12/17 17:52:28;;;;;;;;;;;8.60;99.90;;;;;;5113231;28;20011;-69
2021/12/17 17:54:54;;;;;;;;;;;;;;;;;;5125365;27;19921;-68
2021/12/17 17:57:19;;;;;;;;;;;;;;;;;;5127261;27;19915;-69
2021/12/17 17:59:48;;;;;;;;;;;;;;;;;;5117235;27;20283;-71
2021/12/17 18:02:14;;;;;;;;;;;8.50;99.90;;;;;;5132609;28;20135;-69
2021/12/17 18:04:40;;;;;;;;;;;8.50;99.90;;;;;;5133193;28;19907;-69
2021/12/17 18:07:10;;;;;;;;;;;8.40;99.90;;;;;;5112925;28;19911;-69
2021/12/17 18:09:39;;;;;;;;;;;8.30;99.90;;;;;;5123886;28;19908;-69
2021/12/17 18:12:07;;;;;;;;;;;8.30;99.90;;;;;;5114936;28;19903;-69
2021/12/17 18:14:32;;;;;;;;;;;8.30;99.90;;;;;;5116621;28;19907;-69
2021/12/17 18:16:58;;;;;;;;;;;8.30;99.90;;;;;;5125163;27;20468;-69